sensor_id;sensor_type;location;lat;lon;timestamp;P1;durP1;ratioP1;P2;durP2;ratioP2
75963;SDS011;65820;44.726;37.764;2023-02-02T00:04:23;5.28;;;2.60;;
75963;SDS011;65820;44.726;37.764;2023-02-02T00:10:01;5.32;;;2.00;;
75963;SDS011;65820;44.726;37.764;2023-02-02T00:11:02;5.75;;;2.20;;
75963;SDS011;65820;44.726;37.764;2023-02-02T00:17:59;4.88;;;2.10;;
75963;SDS011;65820;44.726;37.764;2023-02-02T00:19:02;5.63;;;2.42;;
75963;SDS011;65820;44.726;37.764;2023-02-02T00:21:03;5.80;;;2.20;;
75963;SDS011;65820;44.726;37.764;2023-02-02T00:23:15;4.43;;;1.92;;
75963;SDS011;65820;44.726;37.764;2023-02-02T00:24:17;4.72;;;2.20;;
75963;SDS011;65820;44.726;37.764;2023-02-02T00:25:19;5.78;;;2.22;;
75963;SDS011;65820;44.726;37.764;2023-02-02T00:28:43;5.45;;;2.20;;
75963;SDS011;65820;44.726;37.764;2023-02-02T00:29:45;4.97;;;2.28;;
75963;SDS011;65820;44.726;37.764;2023-02-02T00:32:30;5.05;;;2.10;;
75963;SDS011;65820;44.726;37.764;2023-02-02T00:34:20;4.65;;;1.98;;
75963;SDS011;65820;44.726;37.764;2023-02-02T00:36:17;5.35;;;2.20;;
75963;SDS011;65820;44.726;37.764;2023-02-02T00:37:20;4.97;;;2.15;;
75963;SDS011;65820;44.726;37.764;2023-02-02T00:38:21;4.57;;;1.95;;
75963;SDS011;65820;44.726;37.764;2023-02-02T00:40:18;4.50;;;2.08;;
75963;SDS011;65820;44.726;37.764;2023-02-02T00:41:19;5.22;;;2.30;;
75963;SDS011;65820;44.726;37.764;2023-02-02T00:42:21;4.53;;;2.00;;
75963;SDS011;65820;44.726;37.764;2023-02-02T00:43:22;4.53;;;2.00;;
75963;SDS011;65820;44.726;37.764;2023-02-02T00:45:12;4.97;;;2.20;;
75963;SDS011;65820;44.726;37.764;2023-02-02T00:48:55;5.30;;;2.47;;
75963;SDS011;65820;44.726;37.764;2023-02-02T00:49:57;5.47;;;2.22;;
75963;SDS011;65820;44.726;37.764;2023-02-02T00:50:58;4.45;;;2.15;;
75963;SDS011;65820;44.726;37.764;2023-02-02T00:56:13;4.65;;;2.17;;
75963;SDS011;65820;44.726;37.764;2023-02-02T00:58:03;4.93;;;2.10;;
75963;SDS011;65820;44.726;37.764;2023-02-02T01:00:16;4.00;;;2.00;;
75963;SDS011;65820;44.726;37.764;2023-02-02T01:02:15;4.38;;;2.00;;
75963;SDS011;65820;44.726;37.764;2023-02-02T01:04:05;4.55;;;1.90;;
75963;SDS011;65820;44.726;37.764;2023-02-02T01:05:07;5.28;;;1.95;;
75963;SDS011;65820;44.726;37.764;2023-02-02T01:07:12;4.80;;;2.05;;
75963;SDS011;65820;44.726;37.764;2023-02-02T01:08:13;4.65;;;1.85;;
75963;SDS011;65820;44.726;37.764;2023-02-02T01:10:03;3.25;;;1.58;;
75963;SDS011;65820;44.726;37.764;2023-02-02T01:11:53;5.10;;;2.17;;
75963;SDS011;65820;44.726;37.764;2023-02-02T01:14:38;3.38;;;1.42;;
75963;SDS011;65820;44.726;37.764;2023-02-02T01:15:40;4.80;;;1.80;;
75963;SDS011;65820;44.726;37.764;2023-02-02T01:16:41;4.63;;;1.98;;
75963;SDS011;65820;44.726;37.764;2023-02-02T01:19:18;4.60;;;1.83;;
75963;SDS011;65820;44.726;37.764;2023-02-02T01:22:26;4.50;;;1.98;;
75963;SDS011;65820;44.726;37.764;2023-02-02T01:24:15;4.80;;;1.70;;
75963;SDS011;65820;44.726;37.764;2023-02-02T01:26:12;5.00;;;2.10;;
75963;SDS011;65820;44.726;37.764;2023-02-02T01:28:17;4.53;;;1.60;;
75963;SDS011;65820;44.726;37.764;2023-02-02T01:32:20;4.85;;;1.83;;
75963;SDS011;65820;44.726;37.764;2023-02-02T01:33:21;4.07;;;1.70;;
75963;SDS011;65820;44.726;37.764;2023-02-02T01:38:02;3.72;;;1.50;;
75963;SDS011;65820;44.726;37.764;2023-02-02T01:39:04;4.43;;;2.13;;
75963;SDS011;65820;44.726;37.764;2023-02-02T01:40:05;3.85;;;1.60;;
75963;SDS011;65820;44.726;37.764;2023-02-02T01:41:10;3.80;;;1.58;;
75963;SDS011;65820;44.726;37.764;2023-02-02T01:42:19;3.72;;;1.50;;
75963;SDS011;65820;44.726;37.764;2023-02-02T01:49:08;5.15;;;1.60;;
75963;SDS011;65820;44.726;37.764;2023-02-02T01:55:54;3.88;;;1.58;;
75963;SDS011;65820;44.726;37.764;2023-02-02T02:05:13;4.47;;;1.70;;
75963;SDS011;65820;44.726;37.764;2023-02-02T02:06:18;2.95;;;1.38;;
75963;SDS011;65820;44.726;37.764;2023-02-02T02:07:20;2.97;;;1.55;;
75963;SDS011;65820;44.726;37.764;2023-02-02T02:09:33;3.13;;;1.30;;
75963;SDS011;65820;44.726;37.764;2023-02-02T02:11:51;4.60;;;1.60;;
75963;SDS011;65820;44.726;37.764;2023-02-02T02:12:53;4.20;;;1.30;;
75963;SDS011;65820;44.726;37.764;2023-02-02T02:13:55;3.63;;;1.50;;
75963;SDS011;65820;44.726;37.764;2023-02-02T02:15:18;3.65;;;1.27;;
75963;SDS011;65820;44.726;37.764;2023-02-02T02:18:28;3.35;;;1.38;;
75963;SDS011;65820;44.726;37.764;2023-02-02T02:29:17;3.55;;;1.50;;
75963;SDS011;65820;44.726;37.764;2023-02-02T02:32:30;3.03;;;1.52;;
75963;SDS011;65820;44.726;37.764;2023-02-02T02:33:45;4.18;;;1.70;;
75963;SDS011;65820;44.726;37.764;2023-02-02T02:37:10;4.35;;;1.63;;
75963;SDS011;65820;44.726;37.764;2023-02-02T02:41:34;2.47;;;1.08;;
75963;SDS011;65820;44.726;37.764;2023-02-02T02:42:43;3.47;;;1.20;;
75963;SDS011;65820;44.726;37.764;2023-02-02T02:43:53;2.13;;;0.90;;
75963;SDS011;65820;44.726;37.764;2023-02-02T02:44:59;2.42;;;1.20;;
75963;SDS011;65820;44.726;37.764;2023-02-02T02:46:04;3.25;;;1.30;;
75963;SDS011;65820;44.726;37.764;2023-02-02T02:50:25;4.05;;;1.02;;
75963;SDS011;65820;44.726;37.764;2023-02-02T02:52:22;3.42;;;1.20;;
75963;SDS011;65820;44.726;37.764;2023-02-02T02:54:59;3.00;;;1.35;;
75963;SDS011;65820;44.726;37.764;2023-02-02T03:01:53;2.88;;;1.30;;
75963;SDS011;65820;44.726;37.764;2023-02-02T03:07:43;3.15;;;1.10;;
75963;SDS011;65820;44.726;37.764;2023-02-02T03:12:18;2.92;;;1.13;;
75963;SDS011;65820;44.726;37.764;2023-02-02T03:13:20;3.03;;;1.30;;
75963;SDS011;65820;44.726;37.764;2023-02-02T03:14:21;4.30;;;1.48;;
75963;SDS011;65820;44.726;37.764;2023-02-02T03:15:23;2.65;;;1.27;;
75963;SDS011;65820;44.726;37.764;2023-02-02T03:16:24;3.92;;;1.42;;
75963;SDS011;65820;44.726;37.764;2023-02-02T03:19:01;2.78;;;0.90;;
75963;SDS011;65820;44.726;37.764;2023-02-02T03:20:04;2.22;;;1.00;;
75963;SDS011;65820;44.726;37.764;2023-02-02T03:21:05;2.67;;;1.00;;
75963;SDS011;65820;44.726;37.764;2023-02-02T03:22:07;4.18;;;1.05;;
75963;SDS011;65820;44.726;37.764;2023-02-02T03:23:08;3.63;;;1.10;;
75963;SDS011;65820;44.726;37.764;2023-02-02T03:25:05;3.08;;;1.23;;
75963;SDS011;65820;44.726;37.764;2023-02-02T03:26:07;2.58;;;1.25;;
75963;SDS011;65820;44.726;37.764;2023-02-02T03:27:09;3.22;;;1.75;;
75963;SDS011;65820;44.726;37.764;2023-02-02T03:28:11;3.85;;;1.20;;
75963;SDS011;65820;44.726;37.764;2023-02-02T03:29:12;3.45;;;0.95;;
75963;SDS011;65820;44.726;37.764;2023-02-02T03:30:14;3.30;;;1.30;;
75963;SDS011;65820;44.726;37.764;2023-02-02T03:32:04;3.35;;;1.15;;
75963;SDS011;65820;44.726;37.764;2023-02-02T03:33:05;3.63;;;1.23;;
75963;SDS011;65820;44.726;37.764;2023-02-02T03:34:56;3.70;;;0.82;;
75963;SDS011;65820;44.726;37.764;2023-02-02T03:35:57;4.50;;;0.90;;
75963;SDS011;65820;44.726;37.764;2023-02-02T03:36:58;1.98;;;0.90;;
75963;SDS011;65820;44.726;37.764;2023-02-02T03:38:00;3.70;;;1.10;;
75963;SDS011;65820;44.726;37.764;2023-02-02T03:39:01;3.50;;;1.20;;
75963;SDS011;65820;44.726;37.764;2023-02-02T03:40:03;4.40;;;1.30;;
75963;SDS011;65820;44.726;37.764;2023-02-02T03:42:16;4.65;;;1.00;;
75963;SDS011;65820;44.726;37.764;2023-02-02T03:44:08;4.38;;;1.23;;
75963;SDS011;65820;44.726;37.764;2023-02-02T03:45:10;2.92;;;0.80;;
75963;SDS011;65820;44.726;37.764;2023-02-02T03:46:11;4.32;;;1.38;;
75963;SDS011;65820;44.726;37.764;2023-02-02T03:47:12;5.13;;;1.30;;
75963;SDS011;65820;44.726;37.764;2023-02-02T03:49:02;3.22;;;1.25;;
75963;SDS011;65820;44.726;37.764;2023-02-02T03:50:04;4.68;;;1.25;;
75963;SDS011;65820;44.726;37.764;2023-02-02T03:51:54;4.15;;;1.10;;
75963;SDS011;65820;44.726;37.764;2023-02-02T03:52:56;7.20;;;1.75;;
75963;SDS011;65820;44.726;37.764;2023-02-02T03:53:57;6.10;;;1.00;;
75963;SDS011;65820;44.726;37.764;2023-02-02T03:54:58;4.15;;;1.30;;
75963;SDS011;65820;44.726;37.764;2023-02-02T03:55:59;3.60;;;1.20;;
75963;SDS011;65820;44.726;37.764;2023-02-02T03:57:01;4.57;;;1.25;;
75963;SDS011;65820;44.726;37.764;2023-02-02T03:58:02;4.93;;;1.80;;
75963;SDS011;65820;44.726;37.764;2023-02-02T03:59:04;2.70;;;1.27;;
75963;SDS011;65820;44.726;37.764;2023-02-02T04:00:05;4.80;;;1.42;;
75963;SDS011;65820;44.726;37.764;2023-02-02T04:01:13;4.88;;;1.58;;
75963;SDS011;65820;44.726;37.764;2023-02-02T04:02:15;4.03;;;1.35;;
75963;SDS011;65820;44.726;37.764;2023-02-02T04:03:16;7.47;;;1.52;;
75963;SDS011;65820;44.726;37.764;2023-02-02T04:04:17;3.67;;;1.25;;
75963;SDS011;65820;44.726;37.764;2023-02-02T04:05:19;4.50;;;1.10;;
75963;SDS011;65820;44.726;37.764;2023-02-02T04:06:20;20.33;;;5.75;;
75963;SDS011;65820;44.726;37.764;2023-02-02T04:07:22;38.60;;;6.45;;
75963;SDS011;65820;44.726;37.764;2023-02-02T04:08:24;84.10;;;17.52;;
75963;SDS011;65820;44.726;37.764;2023-02-02T04:09:25;70.47;;;14.15;;
75963;SDS011;65820;44.726;37.764;2023-02-02T04:10:26;73.88;;;12.63;;
75963;SDS011;65820;44.726;37.764;2023-02-02T04:11:28;91.15;;;16.48;;
75963;SDS011;65820;44.726;37.764;2023-02-02T04:12:30;76.32;;;15.25;;
75963;SDS011;65820;44.726;37.764;2023-02-02T04:13:31;57.75;;;11.50;;
75963;SDS011;65820;44.726;37.764;2023-02-02T04:16:56;61.58;;;10.02;;
75963;SDS011;65820;44.726;37.764;2023-02-02T04:17:58;52.25;;;9.48;;
75963;SDS011;65820;44.726;37.764;2023-02-02T04:18:59;52.00;;;8.48;;
75963;SDS011;65820;44.726;37.764;2023-02-02T04:20:49;45.63;;;6.80;;
75963;SDS011;65820;44.726;37.764;2023-02-02T04:21:50;33.40;;;7.63;;
75963;SDS011;65820;44.726;37.764;2023-02-02T04:22:53;40.35;;;7.13;;
75963;SDS011;65820;44.726;37.764;2023-02-02T04:24:42;31.38;;;6.05;;
75963;SDS011;65820;44.726;37.764;2023-02-02T04:25:50;30.33;;;5.75;;
75963;SDS011;65820;44.726;37.764;2023-02-02T04:26:52;30.58;;;5.68;;
75963;SDS011;65820;44.726;37.764;2023-02-02T04:27:53;33.92;;;5.82;;
75963;SDS011;65820;44.726;37.764;2023-02-02T04:28:55;30.80;;;5.85;;
75963;SDS011;65820;44.726;37.764;2023-02-02T04:29:56;35.25;;;6.70;;
75963;SDS011;65820;44.726;37.764;2023-02-02T04:30:57;33.72;;;7.20;;
75963;SDS011;65820;44.726;37.764;2023-02-02T04:31:59;34.17;;;6.07;;
75963;SDS011;65820;44.726;37.764;2023-02-02T04:33:00;38.20;;;6.28;;
75963;SDS011;65820;44.726;37.764;2023-02-02T04:34:02;29.73;;;6.28;;
75963;SDS011;65820;44.726;37.764;2023-02-02T04:35:03;29.85;;;6.35;;
75963;SDS011;65820;44.726;37.764;2023-02-02T04:36:05;30.65;;;6.22;;
75963;SDS011;65820;44.726;37.764;2023-02-02T04:37:06;35.85;;;6.75;;
75963;SDS011;65820;44.726;37.764;2023-02-02T04:38:08;27.80;;;5.88;;
75963;SDS011;65820;44.726;37.764;2023-02-02T04:39:10;25.80;;;5.72;;
75963;SDS011;65820;44.726;37.764;2023-02-02T04:40:12;24.20;;;5.90;;
75963;SDS011;65820;44.726;37.764;2023-02-02T04:41:14;30.92;;;6.65;;
75963;SDS011;65820;44.726;37.764;2023-02-02T04:42:15;24.45;;;4.82;;
75963;SDS011;65820;44.726;37.764;2023-02-02T04:44:09;25.67;;;5.10;;
75963;SDS011;65820;44.726;37.764;2023-02-02T04:45:15;27.35;;;5.47;;
75963;SDS011;65820;44.726;37.764;2023-02-02T04:46:17;29.33;;;5.32;;
75963;SDS011;65820;44.726;37.764;2023-02-02T04:47:18;22.55;;;5.18;;
75963;SDS011;65820;44.726;37.764;2023-02-02T04:48:19;26.42;;;5.30;;
75963;SDS011;65820;44.726;37.764;2023-02-02T04:49:21;27.17;;;5.00;;
75963;SDS011;65820;44.726;37.764;2023-02-02T04:50:22;19.85;;;5.07;;
75963;SDS011;65820;44.726;37.764;2023-02-02T04:51:23;23.20;;;5.18;;
75963;SDS011;65820;44.726;37.764;2023-02-02T04:52:25;23.00;;;5.45;;
75963;SDS011;65820;44.726;37.764;2023-02-02T04:53:26;28.58;;;5.40;;
75963;SDS011;65820;44.726;37.764;2023-02-02T04:54:29;20.40;;;4.75;;
75963;SDS011;65820;44.726;37.764;2023-02-02T04:55:34;24.33;;;5.20;;
75963;SDS011;65820;44.726;37.764;2023-02-02T04:56:37;27.00;;;5.60;;
75963;SDS011;65820;44.726;37.764;2023-02-02T04:57:38;22.02;;;4.57;;
75963;SDS011;65820;44.726;37.764;2023-02-02T04:58:40;22.05;;;4.57;;
75963;SDS011;65820;44.726;37.764;2023-02-02T04:59:42;20.33;;;4.03;;
75963;SDS011;65820;44.726;37.764;2023-02-02T05:00:44;20.85;;;4.20;;
75963;SDS011;65820;44.726;37.764;2023-02-02T05:01:45;20.42;;;4.32;;
75963;SDS011;65820;44.726;37.764;2023-02-02T05:02:46;21.80;;;4.97;;
75963;SDS011;65820;44.726;37.764;2023-02-02T05:03:48;17.27;;;3.95;;
75963;SDS011;65820;44.726;37.764;2023-02-02T05:04:50;20.45;;;4.55;;
75963;SDS011;65820;44.726;37.764;2023-02-02T05:05:59;15.48;;;3.35;;
75963;SDS011;65820;44.726;37.764;2023-02-02T05:07:01;19.55;;;4.15;;
75963;SDS011;65820;44.726;37.764;2023-02-02T05:08:02;22.90;;;4.30;;
75963;SDS011;65820;44.726;37.764;2023-02-02T05:09:08;16.38;;;3.53;;
75963;SDS011;65820;44.726;37.764;2023-02-02T05:10:10;17.48;;;3.95;;
75963;SDS011;65820;44.726;37.764;2023-02-02T05:11:13;18.77;;;4.32;;
75963;SDS011;65820;44.726;37.764;2023-02-02T05:12:15;19.65;;;4.18;;
75963;SDS011;65820;44.726;37.764;2023-02-02T05:13:17;23.10;;;4.53;;
75963;SDS011;65820;44.726;37.764;2023-02-02T05:14:21;15.40;;;3.65;;
75963;SDS011;65820;44.726;37.764;2023-02-02T05:15:22;16.52;;;3.72;;
75963;SDS011;65820;44.726;37.764;2023-02-02T05:16:24;17.15;;;4.00;;
75963;SDS011;65820;44.726;37.764;2023-02-02T05:17:25;16.40;;;4.18;;
75963;SDS011;65820;44.726;37.764;2023-02-02T05:18:34;18.58;;;3.60;;
75963;SDS011;65820;44.726;37.764;2023-02-02T05:19:35;16.08;;;3.50;;
75963;SDS011;65820;44.726;37.764;2023-02-02T05:20:37;15.27;;;3.70;;
75963;SDS011;65820;44.726;37.764;2023-02-02T05:21:38;17.42;;;3.72;;
75963;SDS011;65820;44.726;37.764;2023-02-02T05:22:39;16.70;;;3.63;;
75963;SDS011;65820;44.726;37.764;2023-02-02T05:23:41;16.05;;;3.72;;
75963;SDS011;65820;44.726;37.764;2023-02-02T05:24:43;16.83;;;3.72;;
75963;SDS011;65820;44.726;37.764;2023-02-02T05:25:44;15.20;;;3.65;;
75963;SDS011;65820;44.726;37.764;2023-02-02T05:26:51;13.00;;;3.10;;
75963;SDS011;65820;44.726;37.764;2023-02-02T05:27:58;13.85;;;3.67;;
75963;SDS011;65820;44.726;37.764;2023-02-02T05:28:59;14.07;;;3.00;;
75963;SDS011;65820;44.726;37.764;2023-02-02T05:30:00;15.88;;;3.53;;
75963;SDS011;65820;44.726;37.764;2023-02-02T05:31:05;14.38;;;3.13;;
75963;SDS011;65820;44.726;37.764;2023-02-02T05:32:07;13.75;;;3.17;;
75963;SDS011;65820;44.726;37.764;2023-02-02T05:33:08;12.45;;;3.00;;
75963;SDS011;65820;44.726;37.764;2023-02-02T05:34:10;14.68;;;3.28;;
75963;SDS011;65820;44.726;37.764;2023-02-02T05:35:13;12.88;;;3.20;;
75963;SDS011;65820;44.726;37.764;2023-02-02T05:36:14;17.80;;;3.38;;
75963;SDS011;65820;44.726;37.764;2023-02-02T05:37:16;12.70;;;3.15;;
75963;SDS011;65820;44.726;37.764;2023-02-02T05:38:17;14.93;;;2.88;;
75963;SDS011;65820;44.726;37.764;2023-02-02T05:39:18;13.38;;;3.45;;
75963;SDS011;65820;44.726;37.764;2023-02-02T05:40:20;14.00;;;3.03;;
75963;SDS011;65820;44.726;37.764;2023-02-02T05:41:21;11.68;;;2.83;;
75963;SDS011;65820;44.726;37.764;2023-02-02T05:42:22;12.38;;;2.85;;
75963;SDS011;65820;44.726;37.764;2023-02-02T05:43:24;9.90;;;2.72;;
75963;SDS011;65820;44.726;37.764;2023-02-02T05:44:29;14.50;;;2.90;;
75963;SDS011;65820;44.726;37.764;2023-02-02T05:45:30;10.57;;;2.80;;
75963;SDS011;65820;44.726;37.764;2023-02-02T05:46:32;15.25;;;3.55;;
75963;SDS011;65820;44.726;37.764;2023-02-02T05:47:33;13.50;;;3.40;;
75963;SDS011;65820;44.726;37.764;2023-02-02T05:48:35;10.02;;;2.65;;
75963;SDS011;65820;44.726;37.764;2023-02-02T05:49:36;13.60;;;2.80;;
75963;SDS011;65820;44.726;37.764;2023-02-02T05:50:38;13.05;;;3.05;;
75963;SDS011;65820;44.726;37.764;2023-02-02T05:51:43;12.95;;;2.85;;
75963;SDS011;65820;44.726;37.764;2023-02-02T05:52:47;9.82;;;2.38;;
75963;SDS011;65820;44.726;37.764;2023-02-02T05:53:49;15.75;;;2.70;;
75963;SDS011;65820;44.726;37.764;2023-02-02T05:54:50;12.55;;;3.03;;
75963;SDS011;65820;44.726;37.764;2023-02-02T05:55:52;11.23;;;2.70;;
75963;SDS011;65820;44.726;37.764;2023-02-02T05:56:53;10.13;;;3.15;;
75963;SDS011;65820;44.726;37.764;2023-02-02T05:57:55;12.18;;;2.88;;
75963;SDS011;65820;44.726;37.764;2023-02-02T05:58:56;10.98;;;2.80;;
75963;SDS011;65820;44.726;37.764;2023-02-02T05:59:59;11.32;;;3.17;;
75963;SDS011;65820;44.726;37.764;2023-02-02T06:01:01;11.32;;;2.60;;
75963;SDS011;65820;44.726;37.764;2023-02-02T06:02:02;9.35;;;2.38;;
75963;SDS011;65820;44.726;37.764;2023-02-02T06:03:03;13.50;;;2.80;;
75963;SDS011;65820;44.726;37.764;2023-02-02T06:04:05;9.38;;;2.38;;
75963;SDS011;65820;44.726;37.764;2023-02-02T06:05:06;10.35;;;2.60;;
75963;SDS011;65820;44.726;37.764;2023-02-02T06:06:08;10.13;;;2.80;;
75963;SDS011;65820;44.726;37.764;2023-02-02T06:07:12;10.70;;;2.25;;
75963;SDS011;65820;44.726;37.764;2023-02-02T06:08:13;10.10;;;2.33;;
75963;SDS011;65820;44.726;37.764;2023-02-02T06:09:15;7.90;;;2.40;;
75963;SDS011;65820;44.726;37.764;2023-02-02T06:10:16;10.85;;;2.55;;
75963;SDS011;65820;44.726;37.764;2023-02-02T06:11:18;7.82;;;1.98;;
75963;SDS011;65820;44.726;37.764;2023-02-02T06:12:19;8.55;;;2.17;;
75963;SDS011;65820;44.726;37.764;2023-02-02T06:13:20;8.68;;;2.30;;
75963;SDS011;65820;44.726;37.764;2023-02-02T06:14:22;7.65;;;2.10;;
75963;SDS011;65820;44.726;37.764;2023-02-02T06:15:23;9.98;;;2.40;;
75963;SDS011;65820;44.726;37.764;2023-02-02T06:16:27;6.57;;;2.00;;
75963;SDS011;65820;44.726;37.764;2023-02-02T06:17:28;10.52;;;2.08;;
75963;SDS011;65820;44.726;37.764;2023-02-02T06:18:29;8.40;;;2.10;;
75963;SDS011;65820;44.726;37.764;2023-02-02T06:19:31;8.88;;;2.20;;
75963;SDS011;65820;44.726;37.764;2023-02-02T06:20:32;9.38;;;2.42;;
75963;SDS011;65820;44.726;37.764;2023-02-02T06:21:34;12.30;;;2.40;;
75963;SDS011;65820;44.726;37.764;2023-02-02T06:22:37;9.60;;;2.15;;
75963;SDS011;65820;44.726;37.764;2023-02-02T06:23:38;10.93;;;2.97;;
75963;SDS011;65820;44.726;37.764;2023-02-02T06:24:45;8.80;;;2.45;;
75963;SDS011;65820;44.726;37.764;2023-02-02T06:25:47;8.50;;;2.40;;
75963;SDS011;65820;44.726;37.764;2023-02-02T06:26:48;10.20;;;2.75;;
75963;SDS011;65820;44.726;37.764;2023-02-02T06:27:53;8.02;;;2.25;;
75963;SDS011;65820;44.726;37.764;2023-02-02T06:28:55;7.97;;;2.20;;
75963;SDS011;65820;44.726;37.764;2023-02-02T06:29:56;10.55;;;2.38;;
75963;SDS011;65820;44.726;37.764;2023-02-02T06:31:04;8.35;;;2.00;;
75963;SDS011;65820;44.726;37.764;2023-02-02T06:32:07;8.70;;;1.80;;
75963;SDS011;65820;44.726;37.764;2023-02-02T06:33:08;7.60;;;1.98;;
75963;SDS011;65820;44.726;37.764;2023-02-02T06:34:10;8.93;;;2.55;;
75963;SDS011;65820;44.726;37.764;2023-02-02T06:35:14;9.25;;;2.17;;
75963;SDS011;65820;44.726;37.764;2023-02-02T06:36:18;7.75;;;1.83;;
75963;SDS011;65820;44.726;37.764;2023-02-02T06:37:19;8.65;;;2.00;;
75963;SDS011;65820;44.726;37.764;2023-02-02T06:38:21;8.45;;;1.98;;
75963;SDS011;65820;44.726;37.764;2023-02-02T06:39:22;10.55;;;1.98;;
75963;SDS011;65820;44.726;37.764;2023-02-02T06:40:24;10.15;;;1.88;;
75963;SDS011;65820;44.726;37.764;2023-02-02T06:41:26;8.43;;;1.90;;
75963;SDS011;65820;44.726;37.764;2023-02-02T06:42:27;7.05;;;1.77;;
75963;SDS011;65820;44.726;37.764;2023-02-02T06:43:30;8.38;;;1.88;;
75963;SDS011;65820;44.726;37.764;2023-02-02T06:44:31;7.25;;;1.77;;
75963;SDS011;65820;44.726;37.764;2023-02-02T06:45:32;9.77;;;2.47;;
75963;SDS011;65820;44.726;37.764;2023-02-02T06:46:40;8.23;;;1.92;;
75963;SDS011;65820;44.726;37.764;2023-02-02T06:47:42;7.18;;;1.65;;
75963;SDS011;65820;44.726;37.764;2023-02-02T06:48:43;10.20;;;2.08;;
75963;SDS011;65820;44.726;37.764;2023-02-02T06:49:45;7.30;;;1.67;;
75963;SDS011;65820;44.726;37.764;2023-02-02T06:50:46;6.78;;;1.70;;
75963;SDS011;65820;44.726;37.764;2023-02-02T06:51:48;9.30;;;2.67;;
75963;SDS011;65820;44.726;37.764;2023-02-02T06:52:50;7.70;;;2.15;;
75963;SDS011;65820;44.726;37.764;2023-02-02T06:53:54;7.95;;;1.98;;
75963;SDS011;65820;44.726;37.764;2023-02-02T06:55:00;8.00;;;1.85;;
75963;SDS011;65820;44.726;37.764;2023-02-02T06:56:08;6.18;;;1.83;;
75963;SDS011;65820;44.726;37.764;2023-02-02T06:57:12;6.90;;;2.00;;
75963;SDS011;65820;44.726;37.764;2023-02-02T06:58:13;8.10;;;1.98;;
75963;SDS011;65820;44.726;37.764;2023-02-02T06:59:15;6.53;;;2.05;;
75963;SDS011;65820;44.726;37.764;2023-02-02T07:00:16;7.40;;;2.10;;
75963;SDS011;65820;44.726;37.764;2023-02-02T07:01:18;8.82;;;1.85;;
75963;SDS011;65820;44.726;37.764;2023-02-02T07:02:22;7.35;;;2.20;;
75963;SDS011;65820;44.726;37.764;2023-02-02T07:03:23;6.05;;;1.60;;
75963;SDS011;65820;44.726;37.764;2023-02-02T07:04:25;6.65;;;1.63;;
75963;SDS011;65820;44.726;37.764;2023-02-02T07:05:26;6.95;;;1.83;;
75963;SDS011;65820;44.726;37.764;2023-02-02T07:06:28;9.57;;;2.30;;
75963;SDS011;65820;44.726;37.764;2023-02-02T07:07:32;8.40;;;2.40;;
75963;SDS011;65820;44.726;37.764;2023-02-02T07:08:34;6.05;;;1.83;;
75963;SDS011;65820;44.726;37.764;2023-02-02T07:09:36;6.93;;;1.70;;
75963;SDS011;65820;44.726;37.764;2023-02-02T07:10:37;6.90;;;2.08;;
75963;SDS011;65820;44.726;37.764;2023-02-02T07:11:38;7.70;;;1.83;;
75963;SDS011;65820;44.726;37.764;2023-02-02T07:12:40;7.80;;;1.90;;
75963;SDS011;65820;44.726;37.764;2023-02-02T07:13:41;5.85;;;1.75;;
75963;SDS011;65820;44.726;37.764;2023-02-02T07:14:46;9.88;;;1.95;;
75963;SDS011;65820;44.726;37.764;2023-02-02T07:15:47;5.93;;;1.83;;
75963;SDS011;65820;44.726;37.764;2023-02-02T07:16:49;6.68;;;1.73;;
75963;SDS011;65820;44.726;37.764;2023-02-02T07:17:50;7.18;;;1.48;;
75963;SDS011;65820;44.726;37.764;2023-02-02T07:18:53;5.43;;;1.25;;
75963;SDS011;65820;44.726;37.764;2023-02-02T07:19:58;6.15;;;1.65;;
75963;SDS011;65820;44.726;37.764;2023-02-02T07:20:59;5.60;;;1.73;;
75963;SDS011;65820;44.726;37.764;2023-02-02T07:22:01;6.43;;;1.80;;
75963;SDS011;65820;44.726;37.764;2023-02-02T07:23:02;5.25;;;1.60;;
75963;SDS011;65820;44.726;37.764;2023-02-02T07:24:04;5.07;;;1.50;;
75963;SDS011;65820;44.726;37.764;2023-02-02T07:25:06;5.80;;;1.83;;
75963;SDS011;65820;44.726;37.764;2023-02-02T07:26:09;6.03;;;1.70;;
75963;SDS011;65820;44.726;37.764;2023-02-02T07:27:12;6.07;;;1.83;;
75963;SDS011;65820;44.726;37.764;2023-02-02T07:28:16;5.68;;;1.52;;
75963;SDS011;65820;44.726;37.764;2023-02-02T07:29:17;5.85;;;1.67;;
75963;SDS011;65820;44.726;37.764;2023-02-02T07:30:19;5.80;;;2.03;;
75963;SDS011;65820;44.726;37.764;2023-02-02T07:31:22;6.55;;;1.65;;
75963;SDS011;65820;44.726;37.764;2023-02-02T07:32:25;6.38;;;1.50;;
75963;SDS011;65820;44.726;37.764;2023-02-02T07:33:26;6.93;;;1.70;;
75963;SDS011;65820;44.726;37.764;2023-02-02T07:34:28;7.70;;;1.60;;
75963;SDS011;65820;44.726;37.764;2023-02-02T07:35:29;5.65;;;1.52;;
75963;SDS011;65820;44.726;37.764;2023-02-02T07:36:30;5.45;;;1.70;;
75963;SDS011;65820;44.726;37.764;2023-02-02T07:37:32;5.00;;;1.55;;
75963;SDS011;65820;44.726;37.764;2023-02-02T07:38:33;6.20;;;1.50;;
75963;SDS011;65820;44.726;37.764;2023-02-02T07:39:34;5.78;;;1.60;;
75963;SDS011;65820;44.726;37.764;2023-02-02T07:40:36;8.18;;;1.70;;
75963;SDS011;65820;44.726;37.764;2023-02-02T07:41:37;7.68;;;2.05;;
75963;SDS011;65820;44.726;37.764;2023-02-02T07:42:48;5.03;;;1.48;;
75963;SDS011;65820;44.726;37.764;2023-02-02T07:43:49;4.82;;;1.40;;
75963;SDS011;65820;44.726;37.764;2023-02-02T07:44:51;7.38;;;1.67;;
75963;SDS011;65820;44.726;37.764;2023-02-02T07:45:52;5.20;;;1.45;;
75963;SDS011;65820;44.726;37.764;2023-02-02T07:46:53;5.15;;;1.42;;
75963;SDS011;65820;44.726;37.764;2023-02-02T07:47:58;7.15;;;1.52;;
75963;SDS011;65820;44.726;37.764;2023-02-02T07:49:00;6.18;;;1.30;;
75963;SDS011;65820;44.726;37.764;2023-02-02T07:50:06;6.03;;;1.50;;
75963;SDS011;65820;44.726;37.764;2023-02-02T07:51:14;5.07;;;1.73;;
75963;SDS011;65820;44.726;37.764;2023-02-02T07:52:17;6.05;;;1.40;;
75963;SDS011;65820;44.726;37.764;2023-02-02T07:53:18;5.55;;;1.58;;
75963;SDS011;65820;44.726;37.764;2023-02-02T07:54:21;5.22;;;1.45;;
75963;SDS011;65820;44.726;37.764;2023-02-02T07:55:22;5.50;;;1.95;;
75963;SDS011;65820;44.726;37.764;2023-02-02T07:56:24;6.10;;;1.77;;
75963;SDS011;65820;44.726;37.764;2023-02-02T07:57:29;5.55;;;1.58;;
75963;SDS011;65820;44.726;37.764;2023-02-02T07:58:31;4.70;;;1.50;;
75963;SDS011;65820;44.726;37.764;2023-02-02T07:59:32;5.53;;;1.60;;
75963;SDS011;65820;44.726;37.764;2023-02-02T08:00:33;5.55;;;1.58;;
75963;SDS011;65820;44.726;37.764;2023-02-02T08:01:35;6.25;;;1.73;;
75963;SDS011;65820;44.726;37.764;2023-02-02T08:02:36;6.57;;;1.50;;
75963;SDS011;65820;44.726;37.764;2023-02-02T08:03:37;6.68;;;1.67;;
75963;SDS011;65820;44.726;37.764;2023-02-02T08:04:40;4.18;;;1.30;;
75963;SDS011;65820;44.726;37.764;2023-02-02T08:05:41;5.35;;;1.40;;
75963;SDS011;65820;44.726;37.764;2023-02-02T08:06:42;4.80;;;1.40;;
75963;SDS011;65820;44.726;37.764;2023-02-02T08:07:45;5.05;;;1.35;;
75963;SDS011;65820;44.726;37.764;2023-02-02T08:08:46;4.22;;;1.20;;
75963;SDS011;65820;44.726;37.764;2023-02-02T08:09:49;4.50;;;1.17;;
75963;SDS011;65820;44.726;37.764;2023-02-02T08:10:53;4.53;;;1.25;;
75963;SDS011;65820;44.726;37.764;2023-02-02T08:11:55;5.68;;;1.58;;
75963;SDS011;65820;44.726;37.764;2023-02-02T08:13:01;4.25;;;1.30;;
75963;SDS011;65820;44.726;37.764;2023-02-02T08:14:03;6.57;;;1.50;;
75963;SDS011;65820;44.726;37.764;2023-02-02T08:15:05;4.55;;;1.40;;